Tropical Cyclones
[Index]
Season 2020-2021 Tropical Cyclone JOBO Track Map
Season 2020-2021 Summaries (Operational Data): [AU] [SIO] [SPAC] [SH]
<<- Previous TC | 2020-2021 Season | Next TC ->>

click for intensity scale information  Lat/long Grid: Show Hide

 Date Labels: Show Hide

Operational Tropical Cyclone Data

Name: JOBO
Number: 2129

14 Apr 2021 18:00 UTC to 24 Apr 2021 18:00 UTC

    date/time    lat    long     hPa   cat  kts
2021-04-14 18   10.5    78.2    1010         15          
2021-04-15 00   10.2    77.6    1010         15          
2021-04-15 06   10.0    77.0    1010         15          
2021-04-15 12    9.7    76.6    1010         15          
2021-04-15 18    9.8    76.2    1010         15          
2021-04-16 00   10.0    75.9    1010         15          
2021-04-16 06   10.0    74.7    1010         15          
2021-04-16 12   10.2    73.5    1010         15          
2021-04-16 18    9.9    72.3    1011         15          
2021-04-17 00    9.8    70.2    1010         15          
2021-04-17 06    9.8    68.7    1010         15          
2021-04-17 12   10.1    67.6    1010         15          
2021-04-17 18   10.5    66.6    1010         15          
2021-04-18 00   10.7    66.1    1010         15          
2021-04-18 06   10.9    65.1    1007         20          
2021-04-18 12   11.2    64.2    1007         20          
2021-04-18 18   11.5    62.2    1007         20          
2021-04-19 00   11.1    61.2    1007         20          
2021-04-19 06   10.5    58.6    1005         20          
2021-04-19 12   11.4    57.3    1004         20          
2021-04-19 18   11.5    55.4    1004         20          
2021-04-20 00   11.1    53.7    1004         20          
2021-04-20 06   10.8    52.4    1007         25          
2021-04-20 12   10.5    51.0    1003         25          
2021-04-20 18   10.2    49.8    1000         25          
2021-04-21 00    9.9    48.8    1001    1    40          
2021-04-21 06    9.7    48.2     997    2    50          
2021-04-21 12    9.8    47.8     995    2    50          
2021-04-21 18    9.8    47.1     999    1    45          
2021-04-22 00    9.8    46.5     996    1    45          
2021-04-22 06    9.7    45.7     998    1    45          
2021-04-22 12    9.6    45.2    1000    1    40          
2021-04-22 18    9.4    44.8    1005    1    35          
2021-04-23 00    9.1    44.3    1001    1    40          
2021-04-23 06    8.6    43.9    1001    1    40          
2021-04-23 12    8.6    43.0    1002    1    35          
2021-04-23 18    8.1    42.3    1005         30          
2021-04-24 00    7.9    41.5    1005         30          
2021-04-24 06    7.9    40.7    1005         30          
2021-04-24 12    7.8    39.7    1004         30          
2021-04-24 18    7.8    38.6    1004         25          
Winds were reported as (or converted to) 10-min average.

Tropical cyclone tracks developed by Michael Bath using operational warnings and advisories and Google Maps.


Document: tropical_cyclone_jobo.htm
Updated: 7 May 2021
[Australian Severe Weather index] [Copyright Notice] [Email Contacts] [Search This Site] [Privacy Policy]


Main Index Home Page Stock Weather Photos Extreme Storms Discussion Storm News and Storm Chasing Reports Tropical Cyclones / Hurricanes / Typhoons Weather Data and Links Wild Fires / Bushfires Weather Observation Techniques Weather Picture Catalogue Tornado Pictures and Reports Stock Video Footage and DVDs for sale